Time;durP1;ratioP1;P1;durP2;ratioP2;P2;SDS_P1;SDS_P2;PMS_P1;PMS_P2;Temp;Humidity;BMP_temperature;BMP_pressure;BME280_temperature;BME280_humidity;BME280_pressure;Samples;Min_cycle;Max_cycle;Signal;HPM_P1;HPM_P2
2023/08/27 00:00:39;;;;;;;;;;;;;;;19.78;42.72;100253.47;4881452;28;98862;-72
2023/08/27 00:03:06;;;;;;;;;;;;;;;19.78;42.59;100245.25;4892744;28;99836;-73
2023/08/27 00:05:32;;;;;;;;;;;;;;;19.77;42.69;100224.53;4846203;28;98623;-70
2023/08/27 00:07:59;;;;;;;;;;;;;;;19.77;42.62;100226.47;4862936;28;98328;-72
2023/08/27 00:10:26;;;;;;;;;;;;;;;19.75;42.81;100215.84;4891955;28;98873;-71
2023/08/27 00:12:52;;;;;;;;;;;;;;;19.73;42.78;100217.31;4844097;28;100933;-72
2023/08/27 00:15:18;;;;;;;;;;;;;;;19.71;42.85;100212.19;4877998;28;98168;-70
2023/08/27 00:17:45;;;;;;;;;;;;;;;19.75;42.72;100221.31;4861950;28;98480;-72
2023/08/27 00:20:11;;;;;;;;;;;;;;;19.79;42.75;100222.25;4861904;28;99310;-71
2023/08/27 00:22:38;;;;;;;;;;;;;;;19.83;42.86;100217.69;4884126;28;98257;-71
2023/08/27 00:25:04;;;;;;;;;;;;;;;19.84;42.78;100219.28;4878990;28;98089;-71
2023/08/27 00:27:30;;;;;;;;;;;;;;;19.85;42.71;100209.97;4866482;28;99143;-71
2023/08/27 00:29:57;;;;;;;;;;;;;;;19.89;42.66;100212.03;4866076;28;99162;-71
2023/08/27 00:32:23;;;;;;;;;;;;;;;19.91;42.65;100223.44;4882459;28;98432;-70
2023/08/27 00:34:48;;;;;;;;;;;;;;;19.93;42.79;100226.66;4863869;28;101133;-72
2023/08/27 00:37:15;;;;;;;;;;;;;;;19.95;42.63;100232.56;4882326;28;114271;-70
2023/08/27 00:39:41;;;;;;;;;;;;;;;19.95;42.77;100238.03;4884046;28;98681;-71
2023/08/27 00:42:07;;;;;;;;;;;;;;;19.94;42.85;100231.78;4883053;28;99214;-71
2023/08/27 00:44:33;;;;;;;;;;;;;;;19.91;42.79;100231.63;4863783;28;103580;-72
2023/08/27 00:47:00;;;;;;;;;;;;;;;19.90;42.83;100225.38;4878725;28;98951;-71
2023/08/27 00:49:26;;;;;;;;;;;;;;;19.89;42.96;100221.03;4881887;28;98144;-72
2023/08/27 00:51:53;;;;;;;;;;;;;;;19.89;42.84;100220.25;4882187;28;98568;-71
2023/08/27 00:54:18;;;;;;;;;;;;;;;19.90;42.89;100230.84;4875829;28;98187;-72
2023/08/27 00:56:45;;;;;;;;;;;;;;;19.90;42.82;100227.31;4880054;28;127368;-73
2023/08/27 00:59:12;;;;;;;;;;;;;;;19.91;42.89;100220.69;4870880;28;98274;-73
2023/08/27 01:01:39;;;;;;;;;;;;;;;19.91;42.90;100226.16;4883571;28;98516;-72
2023/08/27 01:04:05;;;;;;;;;;;;;;;19.88;42.89;100229.56;4885919;28;98780;-71
2023/08/27 01:06:32;;;;;;;;;;;;;;;19.88;42.87;100237.78;4868510;28;99440;-71
2023/08/27 01:09:00;;;;;;;;;;;;;;;19.85;42.99;100223.66;4881785;28;98221;-71
2023/08/27 01:11:30;;;;;;;;;;;;;;;19.86;42.89;100225.25;4903600;28;99987;-72
2023/08/27 01:14:05;;;;;;;;;;;;;;;19.85;43.05;100214.66;4886942;28;100144;-71
2023/08/27 01:16:32;;;;;;;;;;;;;;;19.84;42.99;100211.09;4881730;28;99492;-73
2023/08/27 01:18:59;;;;;;;;;;;;;;;19.80;43.02;100210.16;4871525;28;99392;-70
2023/08/27 01:21:25;;;;;;;;;;;;;;;19.79;42.90;100213.25;4884849;28;99349;-72
2023/08/27 01:23:52;;;;;;;;;;;;;;;19.80;43.04;100206.63;4871739;28;99875;-70
2023/08/27 01:26:43;;;;;;;;;;;;;;;19.76;42.95;100209.22;4871156;28;98128;-70
2023/08/27 01:29:19;;;;;;;;;;;;;;;19.73;42.88;100185.31;4885972;28;98206;-70
2023/08/27 01:31:52;;;;;;;;;;;;;;;19.71;43.09;100173.09;4866109;28;98398;-70
2023/08/27 01:34:19;;;;;;;;;;;;;;;19.71;43.13;100167.63;4901768;28;98430;-73
2023/08/27 01:36:46;;;;;;;;;;;;;;;19.70;43.18;100171.53;4881234;28;99236;-70
2023/08/27 01:39:13;;;;;;;;;;;;;;;19.71;43.00;100181.31;4870928;28;98190;-72
2023/08/27 01:41:40;;;;;;;;;;;;;;;19.71;43.03;100187.56;4870089;28;98458;-70
2023/08/27 01:44:07;;;;;;;;;;;;;;;19.71;43.14;100189.50;4870155;28;98227;-72
2023/08/27 01:46:34;;;;;;;;;;;;;;;19.70;43.14;100196.13;4906883;28;98386;-73
2023/08/27 01:49:01;;;;;;;;;;;;;;;19.67;42.99;100200.31;4883225;28;99508;-70
2023/08/27 01:51:27;;;;;;;;;;;;;;;19.62;43.13;100211.47;4868825;28;97961;-70
2023/08/27 01:53:53;;;;;;;;;;;;;;;19.59;43.28;100204.69;4883238;28;98106;-72
2023/08/27 01:56:20;;;;;;;;;;;;;;;19.57;43.26;100208.88;4882863;28;98920;-73
2023/08/27 01:58:46;;;;;;;;;;;;;;;19.54;43.15;100196.69;4882636;28;98322;-70
2023/08/27 02:01:12;;;;;;;;;;;;;;;19.52;43.21;100198.94;4861742;28;98141;-72
2023/08/27 02:03:39;;;;;;;;;;;;;;;19.50;43.13;100184.84;4868850;28;98320;-72
2023/08/27 02:06:05;;;;;;;;;;;;;;;19.47;43.00;100184.69;4869743;28;98241;-72
2023/08/27 02:08:32;;;;;;;;;;;;;;;19.45;43.09;100192.41;4882530;28;98231;-71
2023/08/27 02:11:00;;;;;;;;;;;;;;;19.43;43.29;100198.22;4883130;28;98418;-74
2023/08/27 02:13:27;;;;;;;;;;;;;;;19.40;43.12;100204.34;4851568;28;98163;-73
2023/08/27 02:15:53;;;;;;;;;;;;;;;19.38;43.30;100210.16;4854442;28;97727;-71
2023/08/27 02:18:19;;;;;;;;;;;;;;;19.41;43.30;100199.69;4875822;28;98652;-73
2023/08/27 02:20:46;;;;;;;;;;;;;;;19.40;43.24;100206.28;4888353;28;98583;-73
2023/08/27 02:23:12;;;;;;;;;;;;;;;19.42;43.25;100193.91;4871904;28;98464;-73
2023/08/27 02:25:39;;;;;;;;;;;;;;;19.45;43.49;100192.41;4870048;28;98964;-72
2023/08/27 02:28:06;;;;;;;;;;;;;;;19.46;43.11;100200.31;4867254;28;98059;-72
2023/08/27 02:30:33;;;;;;;;;;;;;;;19.46;43.02;100192.09;4871922;28;98318;-73
2023/08/27 02:33:01;;;;;;;;;;;;;;;19.46;43.22;100189.38;4880712;28;101428;-71
2023/08/27 02:35:27;;;;;;;;;;;;;;;19.47;43.26;100177.28;4871332;28;98311;-70
2023/08/27 02:37:53;;;;;;;;;;;;;;;19.47;43.27;100160.91;4869201;28;98235;-73
2023/08/27 02:40:19;;;;;;;;;;;;;;;19.46;43.31;100156.56;4866776;28;98992;-70
2023/08/27 02:42:46;;;;;;;;;;;;;;;19.45;43.26;100152.22;4870491;28;98507;-70
2023/08/27 02:45:13;;;;;;;;;;;;;;;19.44;43.19;100153.34;4887661;28;98372;-71
2023/08/27 02:47:40;;;;;;;;;;;;;;;19.43;43.21;100148.25;4904216;28;97965;-71
2023/08/27 02:50:07;;;;;;;;;;;;;;;19.41;43.02;100154.03;4884638;28;99075;-73
2023/08/27 02:52:33;;;;;;;;;;;;;;;19.37;43.35;100148.44;4850215;28;98145;-72
2023/08/27 02:54:59;;;;;;;;;;;;;;;19.36;43.27;100143.28;4872984;28;99297;-71
2023/08/27 02:57:26;;;;;;;;;;;;;;;19.34;43.40;100137.38;4887611;28;98745;-71
2023/08/27 02:59:52;;;;;;;;;;;;;;;19.33;43.33;100139.28;4872556;28;98065;-71
2023/08/27 03:02:19;;;;;;;;;;;;;;;19.32;43.35;100139.63;4862448;28;98088;-73
2023/08/27 03:04:46;;;;;;;;;;;;;;;19.32;43.29;100136.91;4870703;28;98855;-70
2023/08/27 03:07:12;;;;;;;;;;;;;;;19.32;43.35;100137.69;4871209;28;98945;-72
2023/08/27 03:09:38;;;;;;;;;;;;;;;19.34;43.32;100132.72;4866479;28;98217;-70
2023/08/27 03:12:04;;;;;;;;;;;;;;;19.35;43.36;100117.13;4870081;28;97979;-72
2023/08/27 03:14:30;;;;;;;;;;;;;;;19.36;43.34;100127.69;4873419;28;98158;-72
2023/08/27 03:16:57;;;;;;;;;;;;;;;19.36;43.41;100122.22;4885825;28;98881;-72
2023/08/27 03:19:23;;;;;;;;;;;;;;;19.39;43.24;100123.50;4867775;28;98122;-72
2023/08/27 03:21:50;;;;;;;;;;;;;;;19.40;43.24;100127.84;4886857;28;98279;-72
2023/08/27 03:24:16;;;;;;;;;;;;;;;19.41;43.35;100125.91;4871783;28;99883;-72
2023/08/27 03:26:44;;;;;;;;;;;;;;;19.44;43.42;100123.28;4869461;28;98259;-72
2023/08/27 03:29:10;;;;;;;;;;;;;;;19.45;43.36;100111.22;4871598;28;98207;-71
2023/08/27 03:31:36;;;;;;;;;;;;;;;19.47;43.12;100114.44;4893892;28;98904;-73
2023/08/27 03:34:04;;;;;;;;;;;;;;;19.48;43.27;100116.03;4896075;28;98380;-71
2023/08/27 03:36:30;;;;;;;;;;;;;;;19.48;43.25;100116.03;4868624;28;99067;-73
2023/08/27 03:38:57;;;;;;;;;;;;;;;19.51;43.37;100130.97;4882873;28;98817;-71
2023/08/27 03:41:23;;;;;;;;;;;;;;;19.50;43.21;100130.16;4871337;28;98179;-73
2023/08/27 03:43:50;;;;;;;;;;;;;;;19.52;43.24;100127.09;4868871;28;98384;-71
2023/08/27 03:46:16;;;;;;;;;;;;;;;19.51;43.20;100122.75;4861485;28;99904;-72
2023/08/27 03:48:43;;;;;;;;;;;;;;;19.51;43.30;100123.56;4867007;28;98457;-68
2023/08/27 03:51:09;;;;;;;;;;;;;;;19.52;43.39;100113.41;4884866;28;98256;-70
2023/08/27 03:53:36;;;;;;;;;;;;;;;19.51;43.47;100107.16;4886374;28;100249;-71
2023/08/27 03:56:05;;;;;;;;;;;;;;;19.52;43.38;100110.69;4903427;28;98212;-71
2023/08/27 03:58:32;;;;;;;;;;;;;;;19.53;43.29;100112.28;4883489;28;98202;-73
2023/08/27 04:00:58;;;;;;;;;;;;;;;19.52;43.45;100111.47;4865002;28;97926;-71
2023/08/27 04:03:25;;;;;;;;;;;;;;;19.52;43.31;100119.69;4860188;28;98689;-70
2023/08/27 04:05:51;;;;;;;;;;;;;;;19.54;43.29;100122.09;4863699;28;97856;-71
2023/08/27 04:08:18;;;;;;;;;;;;;;;19.54;43.32;100119.38;4883043;28;98435;-70
2023/08/27 04:10:49;;;;;;;;;;;;;;;19.55;43.57;100115.50;4886230;28;98460;-71
2023/08/27 04:13:18;;;;;;;;;;;;;;;19.50;43.32;100121.97;4886631;28;99639;-71
2023/08/27 04:15:51;;;;;;;;;;;;;;;19.47;43.43;100130.84;4865248;28;98011;-71
2023/08/27 04:18:17;;;;;;;;;;;;;;;19.46;43.30;100133.91;4871370;28;98243;-71
2023/08/27 04:20:43;;;;;;;;;;;;;;;19.43;43.57;100124.44;4860926;28;97951;-71
2023/08/27 04:23:10;;;;;;;;;;;;;;;19.42;43.39;100133.78;4855189;28;98386;-71
2023/08/27 04:25:36;;;;;;;;;;;;;;;19.41;43.44;100139.56;4883222;28;99526;-73
2023/08/27 04:28:03;;;;;;;;;;;;;;;19.40;43.53;100144.22;4870523;28;98508;-72
2023/08/27 04:30:29;;;;;;;;;;;;;;;19.43;43.58;100126.38;4849920;28;98263;-73
2023/08/27 04:32:56;;;;;;;;;;;;;;;19.44;43.41;100125.22;4869663;28;98653;-73
2023/08/27 04:35:22;;;;;;;;;;;;;;;19.43;43.48;100124.44;4869757;28;98212;-72
2023/08/27 04:37:50;;;;;;;;;;;;;;;19.43;43.48;100121.69;4870680;28;97952;-71
2023/08/27 04:40:17;;;;;;;;;;;;;;;19.45;43.49;100118.63;4887216;28;99719;-71
2023/08/27 04:42:44;;;;;;;;;;;;;;;19.44;43.25;100120.56;4849974;28;99391;-71
2023/08/27 04:45:12;;;;;;;;;;;;;;;19.45;43.39;100129.56;4887316;28;99247;-71
2023/08/27 04:47:39;;;;;;;;;;;;;;;19.45;43.34;100124.09;4870375;28;98242;-71
2023/08/27 04:50:06;;;;;;;;;;;;;;;19.44;43.65;100117.81;4889072;28;98036;-71
2023/08/27 04:52:32;;;;;;;;;;;;;;;19.45;43.37;100121.34;4888496;28;98849;-71
2023/08/27 04:54:58;;;;;;;;;;;;;;;19.46;43.45;100129.25;4885934;28;98544;-72
2023/08/27 04:57:25;;;;;;;;;;;;;;;19.49;43.38;100127.75;4868639;28;98826;-71
2023/08/27 04:59:53;;;;;;;;;;;;;;;19.54;43.42;100124.84;4882335;28;98295;-70
2023/08/27 05:02:20;;;;;;;;;;;;;;;19.59;43.46;100124.63;4864990;28;98077;-71
2023/08/27 05:04:46;;;;;;;;;;;;;;;19.66;43.31;100126.84;4864665;28;98527;-70
2023/08/27 05:07:13;;;;;;;;;;;;;;;19.76;43.31;100123.69;4863145;28;98447;-72
2023/08/27 05:09:39;;;;;;;;;;;;;;;19.85;43.21;100121.66;4861647;28;98059;-70
2023/08/27 05:12:05;;;;;;;;;;;;;;;19.90;43.28;100115.19;4884637;28;99246;-70
2023/08/27 05:14:31;;;;;;;;;;;;;;;19.88;43.26;100107.31;4854633;28;98455;-70
2023/08/27 05:16:57;;;;;;;;;;;;;;;19.88;43.47;100103.78;4885341;28;99697;-73
2023/08/27 05:19:24;;;;;;;;;;;;;;;19.88;43.30;100098.31;4879544;28;98151;-70
2023/08/27 05:21:50;;;;;;;;;;;;;;;19.88;43.22;100095.56;4889602;28;98389;-72
2023/08/27 05:24:16;;;;;;;;;;;;;;;19.89;43.22;100089.78;4890479;28;98247;-70
2023/08/27 05:26:42;;;;;;;;;;;;;;;19.90;43.25;100096.84;4886223;28;98143;-70
2023/08/27 05:29:08;;;;;;;;;;;;;;;19.91;43.34;100095.69;4883171;28;98280;-70
2023/08/27 05:31:35;;;;;;;;;;;;;;;19.90;43.30;100105.03;4866185;28;98374;-71
2023/08/27 05:34:01;;;;;;;;;;;;;;;19.90;43.24;100082.38;4886204;28;98298;-72
2023/08/27 05:36:31;;;;;;;;;;;;;;;19.90;43.42;100090.56;4884699;28;98466;-73
2023/08/27 05:38:58;;;;;;;;;;;;;;;19.90;43.34;100082.38;4886063;28;98344;-72
2023/08/27 05:41:24;;;;;;;;;;;;;;;19.89;43.42;100086.25;4860967;28;98338;-72
2023/08/27 05:43:50;;;;;;;;;;;;;;;19.89;43.38;100089.78;4881856;28;99848;-72
2023/08/27 05:46:17;;;;;;;;;;;;;;;19.92;43.33;100075.41;4864759;28;98801;-70
2023/08/27 05:48:43;;;;;;;;;;;;;;;19.93;43.39;100076.22;4881782;28;98328;-72
2023/08/27 05:51:10;;;;;;;;;;;;;;;19.92;43.33;100085.53;4898552;28;98173;-73
2023/08/27 05:53:38;;;;;;;;;;;;;;;19.89;43.32;100083.50;4866230;28;100048;-73
2023/08/27 05:56:04;;;;;;;;;;;;;;;19.87;43.49;100086.56;4887109;28;98775;-71
2023/08/27 05:58:30;;;;;;;;;;;;;;;19.85;43.51;100083.38;4883772;28;99717;-71
2023/08/27 06:00:57;;;;;;;;;;;;;;;19.83;43.22;100080.19;4868051;28;98250;-71
2023/08/27 06:03:25;;;;;;;;;;;;;;;19.82;43.40;100087.59;4867793;28;98408;-73
2023/08/27 06:05:51;;;;;;;;;;;;;;;19.83;43.53;100091.13;4855167;28;98358;-71
2023/08/27 06:08:18;;;;;;;;;;;;;;;19.83;43.55;100091.13;4868430;28;98134;-71
2023/08/27 06:10:45;;;;;;;;;;;;;;;19.82;43.36;100106.72;4867397;28;98096;-72
2023/08/27 06:13:11;;;;;;;;;;;;;;;19.82;43.39;100106.72;4861898;28;98418;-73
2023/08/27 06:15:37;;;;;;;;;;;;;;;19.83;43.39;100113.00;4868933;28;98626;-73
2023/08/27 06:18:07;;;;;;;;;;;;;;;19.84;43.48;100109.13;4864754;28;98824;-71
2023/08/27 06:20:33;;;;;;;;;;;;;;;19.81;43.29;100120.75;4863709;28;98379;-72
2023/08/27 06:23:00;;;;;;;;;;;;;;;19.77;43.33;100128.03;4859193;28;98494;-70
2023/08/27 06:25:26;;;;;;;;;;;;;;;19.75;43.50;100122.88;4860949;28;99895;-74
2023/08/27 06:27:55;;;;;;;;;;;;;;;19.76;43.42;100119.00;4848145;28;98135;-74
2023/08/27 06:30:22;;;;;;;;;;;;;;;19.78;43.63;100122.22;4844943;28;98979;-70
2023/08/27 06:32:48;;;;;;;;;;;;;;;19.77;43.62;100117.09;4858563;28;98287;-70
2023/08/27 06:35:15;;;;;;;;;;;;;;;19.75;43.47;100122.09;4881628;28;98941;-73
2023/08/27 06:37:41;;;;;;;;;;;;;;;19.73;43.50;100113.41;4848549;28;98505;-70
2023/08/27 06:40:08;;;;;;;;;;;;;;;19.71;43.68;100118.44;4866290;28;98838;-70
2023/08/27 06:42:34;;;;;;;;;;;;;;;19.71;43.35;100111.03;4841797;28;98403;-73
2023/08/27 06:45:01;;;;;;;;;;;;;;;19.72;43.60;100112.59;4847727;28;98440;-69
2023/08/27 06:47:28;;;;;;;;;;;;;;;19.76;43.49;100110.00;4862123;28;98428;-70
2023/08/27 06:49:56;;;;;;;;;;;;;;;19.83;43.47;100108.31;4842895;28;98163;-70
2023/08/27 06:52:22;;;;;;;;;;;;;;;19.97;43.21;100101.75;4860590;28;98226;-72
2023/08/27 06:54:49;;;;;;;;;;;;;;;20.07;43.26;100099.34;4858884;28;100717;-72
2023/08/27 06:57:15;;;;;;;;;;;;;;;20.15;43.16;100092.19;4858682;28;98847;-71
2023/08/27 06:59:42;;;;;;;;;;;;;;;20.23;43.10;100109.66;4864577;28;98065;-71
2023/08/27 07:02:08;;;;;;;;;;;;;;;20.33;43.00;100101.78;4862437;28;98515;-71
2023/08/27 07:04:35;;;;;;;;;;;;;;;20.46;42.96;100104.53;4854164;28;98094;-73
2023/08/27 07:07:01;;;;;;;;;;;;;;;20.51;43.06;100101.59;4861405;28;100055;-72
2023/08/27 07:09:27;;;;;;;;;;;;;;;20.51;42.95;100105.13;4847235;28;98617;-71
2023/08/27 07:11:53;;;;;;;;;;;;;;;;;;4862145;28;100383;-72
2023/08/27 07:14:20;;;;;;;;;;;;;;;20.52;43.09;100103.22;4879950;28;98260;-71
2023/08/27 07:16:47;;;;;;;;;;;;;;;;;;4864852;28;99854;-73
2023/08/27 07:19:14;;;;;;;;;;;;;;;20.61;43.02;100111.28;4859314;28;98675;-72
2023/08/27 07:21:41;;;;;;;;;;;;;;;20.73;42.99;100114.03;4862652;28;99006;-71
2023/08/27 07:24:08;;;;;;;;;;;;;;;20.97;42.74;100099.50;4861894;28;98258;-72
2023/08/27 07:26:34;;;;;;;;;;;;;;;21.24;42.44;100095.19;4885806;28;99125;-73
2023/08/27 07:29:00;;;;;;;;;;;;;;;21.41;42.34;100100.41;4897340;28;100414;-73
2023/08/27 07:31:27;;;;;;;;;;;;;;;21.41;42.44;100103.16;4880224;28;98479;-73
2023/08/27 07:33:53;;;;;;;;;;;;;;;21.35;42.74;100103.75;4865394;28;101958;-71
2023/08/27 07:36:19;;;;;;;;;;;;;;;21.27;42.84;100100.78;4880840;28;98158;-73
2023/08/27 07:38:46;;;;;;;;;;;;;;;21.17;42.91;100103.19;4865815;28;98344;-71
2023/08/27 07:41:13;;;;;;;;;;;;;;;21.08;43.05;100106.09;4866167;28;98914;-71
2023/08/27 07:43:40;;;;;;;;;;;;;;;20.97;43.23;100099.50;4863060;28;99899;-71
2023/08/27 07:46:07;;;;;;;;;;;;;;;20.86;43.32;100101.91;4865680;28;100061;-71
2023/08/27 07:48:33;;;;;;;;;;;;;;;20.78;43.42;100103.63;4875062;28;98474;-73
2023/08/27 07:51:02;;;;;;;;;;;;;;;20.74;43.35;100110.13;4885119;28;98433;-71
2023/08/27 07:53:28;;;;;;;;;;;;;;;20.73;43.31;100114.81;4864172;28;98328;-71
2023/08/27 07:55:55;;;;;;;;;;;;;;;20.76;43.33;100119.63;4866340;28;98193;-71
2023/08/27 07:58:22;;;;;;;;;;;;;;;20.78;43.30;100117.31;4873161;28;99089;-71
2023/08/27 08:00:48;;;;;;;;;;;;;;;20.80;43.27;100119.72;4868833;28;98080;-71
2023/08/27 08:03:15;;;;;;;;;;;;;;;20.85;43.19;100114.00;4895962;28;98625;-72
2023/08/27 08:05:42;;;;;;;;;;;;;;;20.96;43.10;100109.66;4862620;28;98240;-71
2023/08/27 08:08:08;;;;;;;;;;;;;;;21.12;42.95;100107.00;4864859;28;98232;-73
2023/08/27 08:10:36;;;;;;;;;;;;;;;21.28;42.79;100107.84;4880574;28;98245;-71
2023/08/27 08:13:03;;;;;;;;;;;;;;;21.45;42.64;100090.34;4847165;28;98599;-72
2023/08/27 08:15:30;;;;;;;;;;;;;;;21.66;42.47;100084.66;4860906;28;98173;-71
2023/08/27 08:17:56;;;;;;;;;;;;;;;21.83;42.40;100089.00;4861178;28;98277;-71
2023/08/27 08:20:22;;;;;;;;;;;;;;;21.86;42.54;100085.56;4882953;28;98265;-71
2023/08/27 08:22:49;;;;;;;;;;;;;;;21.79;42.59;100077.94;4881370;28;98483;-73
2023/08/27 08:25:15;;;;;;;;;;;;;;;21.71;42.73;100078.13;4884249;28;98289;-73
2023/08/27 08:27:41;;;;;;;;;;;;;;;21.63;42.86;100074.38;4867941;28;99413;-71
2023/08/27 08:30:08;;;;;;;;;;;;;;;21.61;43.01;100059.41;4864624;28;98243;-73
2023/08/27 08:32:34;;;;;;;;;;;;;;;21.68;43.04;100052.19;4880091;28;98247;-72
2023/08/27 08:35:01;;;;;;;;;;;;;;;21.79;42.71;100045.03;4861979;28;99886;-71
2023/08/27 08:37:27;;;;;;;;;;;;;;;21.94;42.67;100046.19;4868902;28;98990;-72
2023/08/27 08:39:54;;;;;;;;;;;;;;;22.03;42.62;100052.28;4877622;28;98185;-71
2023/08/27 08:42:34;;;;;;;;;;;;;;;22.14;42.40;100049.06;4868084;28;98065;-73
2023/08/27 08:45:13;;;;;;;;;;;;;;;22.16;42.53;100047.53;4864123;28;99592;-72
2023/08/27 08:47:40;;;;;;;;;;;;;;;22.21;42.40;100043.75;4866100;28;98508;-72
2023/08/27 08:50:10;;;;;;;;;;;;;;;22.26;42.54;100038.78;4883397;28;98227;-71
2023/08/27 08:52:39;;;;;;;;;;;;;;;22.30;42.49;100025.91;4874787;28;98237;-73
2023/08/27 08:55:09;;;;;;;;;;;;;;;22.36;42.39;100031.94;4883200;28;98857;-72
2023/08/27 08:57:47;;;;;;;;;;;;;;;22.40;42.37;100038.31;4863095;28;98836;-71
2023/08/27 09:00:14;;;;;;;;;;;;;;;22.39;42.78;100044.94;4882089;28;98385;-71
2023/08/27 09:02:41;;;;;;;;;;;;;;;22.28;42.65;100043.88;4881676;28;100819;-71
2023/08/27 09:05:09;;;;;;;;;;;;;;;22.19;42.89;100041.34;4872342;28;101099;-71
2023/08/27 09:07:37;;;;;;;;;;;;;;;22.11;42.84;100036.00;4864430;28;99917;-72
2023/08/27 09:10:04;;;;;;;;;;;;;;;22.02;43.12;100034.25;4874323;28;98260;-71
2023/08/27 09:12:31;;;;;;;;;;;;;;;21.94;43.09;100031.69;4862919;28;98166;-70
2023/08/27 09:14:58;;;;;;;;;;;;;;;21.84;43.06;100030.25;4863773;28;98383;-71
2023/08/27 09:17:27;;;;;;;;;;;;;;;21.78;43.11;100028.94;4867750;28;98260;-73
2023/08/27 09:19:53;;;;;;;;;;;;;;;21.74;43.26;100026.09;4846506;28;98321;-73
2023/08/27 09:22:19;;;;;;;;;;;;;;;21.70;43.23;100025.22;4833031;28;98270;-72
2023/08/27 09:24:48;;;;;;;;;;;;;;;21.68;43.23;100021.22;4835621;28;98722;-71
2023/08/27 09:27:15;;;;;;;;;;;;;;;21.65;43.29;100019.97;4834652;28;98227;-73
2023/08/27 09:29:42;;;;;;;;;;;;;;;21.67;43.18;100019.63;4830825;28;100058;-72
2023/08/27 09:32:18;;;;;;;;;;;;;;;21.67;43.20;100014.16;4845367;28;99514;-73
2023/08/27 09:34:44;;;;;;;;;;;;;;;21.70;43.28;100013.44;4847320;28;98697;-71
2023/08/27 09:37:11;;;;;;;;;;;;;;;21.72;43.10;100011.13;4845063;28;100794;-73
2023/08/27 09:39:40;;;;;;;;;;;;;;;21.74;43.28;100008.84;4847373;28;98015;-71
2023/08/27 09:42:07;;;;;;;;;;;;;;;21.77;43.19;100005.38;4828489;28;98345;-73
2023/08/27 09:44:34;;;;;;;;;;;;;;;21.79;43.09;100014.06;4826833;28;98589;-73
2023/08/27 09:47:08;;;;;;;;;;;;;;;21.76;43.21;100009.28;4829202;28;98594;-73
2023/08/27 09:49:38;;;;;;;;;;;;;;;21.73;43.19;100002.56;4861649;28;98156;-71
2023/08/27 09:52:05;;;;;;;;;;;;;;;21.75;43.08;100000.25;4833577;28;98137;-73
2023/08/27 09:54:31;;;;;;;;;;;;;;;21.84;43.06;100002.81;4825519;28;99735;-73
2023/08/27 09:57:00;;;;;;;;;;;;;;;21.95;43.04;100006.63;4840514;28;99313;-71
2023/08/27 09:59:28;;;;;;;;;;;;;;;22.09;42.88;100017.16;4828083;28;98472;-73
2023/08/27 10:01:55;;;;;;;;;;;;;;;22.19;42.52;100018.59;4833112;28;98711;-71
2023/08/27 10:04:21;;;;;;;;;;;;;;;22.33;42.65;100023.63;4830871;28;99520;-73
2023/08/27 10:06:49;;;;;;;;;;;;;;;22.48;42.35;100036.53;4842647;28;98823;-74
2023/08/27 10:09:16;;;;;;;;;;;;;;;22.69;42.42;100026.00;4827024;28;99142;-71
2023/08/27 10:11:44;;;;;;;;;;;;;;;23.03;41.81;100029.91;4834522;28;98414;-70
2023/08/27 10:14:13;;;;;;;;;;;;;;;23.20;42.00;100033.38;4859012;28;98236;-70
2023/08/27 10:16:40;;;;;;;;;;;;;;;23.22;42.19;100031.03;4831888;28;98728;-71
2023/08/27 10:19:06;;;;;;;;;;;;;;;23.23;42.04;100029.91;4827829;28;99079;-72
2023/08/27 10:21:34;;;;;;;;;;;;;;;23.32;42.30;100027.72;4842717;28;98774;-70
2023/08/27 10:24:00;;;;;;;;;;;;;;;23.50;41.79;100030.78;4862004;28;100159;-72
2023/08/27 10:26:27;;;;;;;;;;;;;;;23.60;42.25;100030.19;4838992;28;98171;-72
2023/08/27 10:28:53;;;;;;;;;;;;;;;23.76;41.75;100030.09;4843723;28;98052;-70
2023/08/27 10:31:19;;;;;;;;;;;;;;;23.87;41.82;100038.56;4844979;28;98055;-70
2023/08/27 10:33:46;;;;;;;;;;;;;;;24.00;41.86;100023.44;4878871;28;98011;-70
2023/08/27 10:36:17;;;;;;;;;;;;;;;24.06;41.71;100024.72;4846101;28;98800;-70
2023/08/27 10:38:44;;;;;;;;;;;;;;;24.17;41.72;100014.69;4846947;28;98194;-70
2023/08/27 10:41:10;;;;;;;;;;;;;;;24.28;41.73;100009.31;4849482;28;99234;-70
2023/08/27 10:43:36;;;;;;;;;;;;;;;24.40;41.81;100000.88;4848206;28;99851;-73
2023/08/27 10:46:22;;;;;;;;;;;;;;;24.61;41.42;99992.13;4880525;28;98854;-72
2023/08/27 10:48:49;;;;;;;;;;;;;;;24.72;41.26;99997.78;4880742;28;98064;-72
2023/08/27 10:51:17;;;;;;;;;;;;;;;24.70;41.64;100000.91;4880541;28;98492;-72
2023/08/27 10:53:49;;;;;;;;;;;;;;;24.61;41.74;100010.63;4861525;28;99198;-71
2023/08/27 10:56:36;;;;;;;;;;;;;;;24.38;42.18;100016.16;4878554;28;99442;-72
2023/08/27 10:59:24;;;;;;;;;;;;;;;24.19;42.40;100017.06;4862683;28;98293;-72
2023/08/27 11:02:09;;;;;;;;;;;;;;;24.10;42.27;100014.56;4846558;28;98504;-73
2023/08/27 11:04:42;;;;;;;;;;;;;;;24.08;42.53;100005.88;4851110;28;99096;-70
2023/08/27 11:07:15;;;;;;;;;;;;;;;24.04;42.51;100002.28;4864877;28;98238;-72
2023/08/27 11:09:53;;;;;;;;;;;;;;;23.94;42.53;100000.94;4882360;28;100005;-70
2023/08/27 11:12:22;;;;;;;;;;;;;;;23.98;42.26;99985.28;4863339;28;98238;-70
2023/08/27 11:14:48;;;;;;;;;;;;;;;24.07;42.16;99987.78;4863775;28;98472;-72
2023/08/27 11:17:25;;;;;;;;;;;;;;;24.20;42.17;99991.09;4866495;28;98025;-72
2023/08/27 11:19:51;;;;;;;;;;;;;;;24.34;42.10;99990.53;4860409;28;98355;-70
2023/08/27 11:22:20;;;;;;;;;;;;;;;24.47;42.04;99995.47;4862576;28;98332;-72
2023/08/27 11:24:49;;;;;;;;;;;;;;;24.55;41.83;99979.84;4847398;28;98559;-70
2023/08/27 11:27:15;;;;;;;;;;;;;;;24.71;42.09;99983.19;4878851;28;98831;-70
2023/08/27 11:29:43;;;;;;;;;;;;;;;24.82;41.66;99979.78;4856074;28;99064;-70
2023/08/27 11:32:09;;;;;;;;;;;;;;;24.79;42.00;99986.81;4859891;28;98090;-71
2023/08/27 11:34:37;;;;;;;;;;;;;;;24.77;42.26;99982.88;4857060;28;98250;-72
2023/08/27 11:37:04;;;;;;;;;;;;;;;24.76;42.00;99978.50;4856657;28;98171;-71
2023/08/27 11:39:30;;;;;;;;;;;;;;;24.82;41.86;99969.56;4865690;28;98278;-72
2023/08/27 11:41:57;;;;;;;;;;;;;;;24.86;42.17;99970.38;4857965;28;99523;-70
2023/08/27 11:44:23;;;;;;;;;;;;;;;24.94;42.12;99963.00;4858108;28;98400;-71
2023/08/27 11:46:51;;;;;;;;;;;;;;;24.87;42.04;99963.69;4848612;28;97883;-72
2023/08/27 11:49:29;;;;;;;;;;;;;;;24.80;42.38;99960.06;4859753;28;98132;-72
2023/08/27 11:51:57;;;;;;;;;;;;;;;24.73;42.28;99947.81;4840415;28;100633;-70
2023/08/27 11:54:28;;;;;;;;;;;;;;;24.78;42.18;99943.13;4876730;28;98508;-72
2023/08/27 11:56:56;;;;;;;;;;;;;;;24.93;41.97;99931.09;4830691;28;99052;-71
2023/08/27 11:59:27;;;;;;;;;;;;;;;25.12;42.06;99938.44;4861046;28;98936;-71
2023/08/27 12:01:54;;;;;;;;;;;;;;;25.25;41.81;99931.47;4848339;28;98210;-71
2023/08/27 12:04:21;;;;;;;;;;;;;;;25.14;41.90;99930.56;4863167;28;98380;-72
2023/08/27 12:06:51;;;;;;;;;;;;;;;25.05;41.93;99936.34;4856520;28;99246;-70
2023/08/27 12:09:26;;;;;;;;;;;;;;;24.98;42.26;99941.78;4863958;28;98746;-72
2023/08/27 12:11:52;;;;;;;;;;;;;;;24.98;42.27;99926.03;4847214;28;98519;-72
2023/08/27 12:14:25;;;;;;;;;;;;;;;24.92;42.58;99926.75;4859428;28;98500;-72
2023/08/27 12:16:52;;;;;;;;;;;;;;;24.81;42.41;99926.63;4841456;28;97965;-72
2023/08/27 12:19:20;;;;;;;;;;;;;;;24.86;42.42;99936.53;4844160;28;98358;-72
2023/08/27 12:21:54;;;;;;;;;;;;;;;24.89;42.64;99938.53;4867556;28;98204;-70
2023/08/27 12:24:49;;;;;;;;;;;;;;;24.93;42.48;99942.13;4870076;28;99972;-71
2023/08/27 12:27:16;;;;;;;;;;;;;;;24.99;42.32;99943.34;4884042;28;98162;-71
2023/08/27 12:29:44;;;;;;;;;;;;;;;24.99;42.65;99940.59;4863840;28;98248;-71
2023/08/27 12:32:11;;;;;;;;;;;;;;;24.96;42.51;99960.66;4866992;28;98444;-71
2023/08/27 12:34:44;;;;;;;;;;;;;;;24.89;42.80;99957.81;4894437;28;98565;-70
2023/08/27 12:37:11;;;;;;;;;;;;;;;24.84;42.86;99953.44;4871962;28;99474;-71
2023/08/27 12:39:38;;;;;;;;;;;;;;;24.84;42.87;99952.66;4877636;28;98257;-70